Time;durP1;ratioP1;P1;durP2;ratioP2;P2;SDS_P1;SDS_P2;PMS_P1;PMS_P2;Temp;Humidity;BMP_temperature;BMP_pressure;BME280_temperature;BME280_humidity;BME280_pressure;Samples;Min_cycle;Max_cycle;Signal;HPM_P1;HPM_P2
2021/12/15 00:01:37;;;;;;;15.15;9.07;;;1.80;92.40;;;;;;5052117;28;20121;-64
2021/12/15 00:04:03;;;;;;;14.85;8.80;;;1.80;92.30;;;;;;5051136;28;20029;-63
2021/12/15 00:06:29;;;;;;;12.65;8.15;;;1.80;92.30;;;;;;5051875;28;20032;-65
2021/12/15 00:08:58;;;;;;;13.38;7.93;;;1.80;92.30;;;;;;5052001;28;20477;-64
2021/12/15 00:11:32;;;;;;;14.50;8.35;;;1.80;92.30;;;;;;5051847;28;20024;-64
2021/12/15 00:13:58;;;;;;;12.88;8.02;;;1.80;92.30;;;;;;5051574;28;20049;-65
2021/12/15 00:16:24;;;;;;;14.43;8.35;;;1.70;92.40;;;;;;5051933;28;20391;-65
2021/12/15 00:18:50;;;;;;;14.15;8.57;;;1.80;92.40;;;;;;5051780;28;20028;-65
2021/12/15 00:21:19;;;;;;;16.77;10.23;;;1.80;92.40;;;;;;5051656;28;20029;-63
2021/12/15 00:23:46;;;;;;;17.75;10.55;;;1.70;92.40;;;;;;5056601;28;20025;-64
2021/12/15 00:26:12;;;;;;;17.48;10.50;;;1.80;92.30;;;;;;5071582;28;20391;-64
2021/12/15 00:28:38;;;;;;;17.02;10.10;;;1.80;92.30;;;;;;5071635;28;20018;-64
2021/12/15 00:31:05;;;;;;;16.98;9.85;;;1.70;92.30;;;;;;5070302;28;20490;-64
2021/12/15 00:33:33;;;;;;;16.27;9.60;;;1.70;92.30;;;;;;5054915;28;20029;-63
2021/12/15 00:35:58;;;;;;;15.00;8.93;;;1.70;92.40;;;;;;5051536;28;20078;-65
2021/12/15 00:38:24;;;;;;;16.77;9.90;;;1.60;92.50;;;;;;5051432;28;20021;-64
2021/12/15 00:40:50;;;;;;;16.05;9.10;;;1.60;92.50;;;;;;5051309;28;20029;-63
2021/12/15 00:43:18;;;;;;;16.42;9.70;;;1.60;92.60;;;;;;5051367;28;20025;-65
2021/12/15 00:45:44;;;;;;;17.85;10.13;;;1.60;92.70;;;;;;5050104;28;20028;-64
2021/12/15 00:48:10;;;;;;;15.93;10.20;;;1.60;92.60;;;;;;5051360;28;20491;-64
2021/12/15 00:50:36;;;;;;;16.08;9.65;;;1.60;92.70;;;;;;5051231;28;20041;-64
2021/12/15 00:53:05;;;;;;;15.52;9.68;;;1.60;92.70;;;;;;5051398;28;20380;-64
2021/12/15 00:55:31;;;;;;;15.57;9.27;;;1.50;92.70;;;;;;5051382;28;20395;-63
2021/12/15 00:57:59;;;;;;;15.30;9.55;;;1.50;92.80;;;;;;5051252;28;20380;-64
2021/12/15 01:00:30;;;;;;;16.00;9.52;;;1.50;92.80;;;;;;5050997;28;20021;-64
2021/12/15 01:02:56;;;;;;;15.50;9.48;;;1.50;92.90;;;;;;5051234;28;20028;-65
2021/12/15 01:05:25;;;;;;;15.95;9.52;;;1.50;93.00;;;;;;5051269;28;20464;-64
2021/12/15 01:07:52;;;;;;;15.32;9.90;;;1.50;93.00;;;;;;5051067;28;20032;-65
2021/12/15 01:10:28;;;;;;;15.32;9.45;;;1.50;93.10;;;;;;5051094;28;20421;-63
2021/12/15 01:21:10;;;;;;;14.65;8.77;;;1.50;93.00;;;;;;5054949;28;20174;-64
2021/12/15 01:23:36;;;;;;;15.15;9.20;;;1.60;93.10;;;;;;5054915;28;20044;-64
2021/12/15 01:26:12;;;;;;;14.95;9.32;;;1.60;93.10;;;;;;5054925;28;20021;-64
2021/12/15 01:28:39;;;;;;;14.15;9.02;;;1.60;93.10;;;;;;5054985;28;20036;-64
2021/12/15 01:31:07;;;;;;;14.95;9.18;;;1.60;93.00;;;;;;5054909;28;20555;-63
2021/12/15 01:33:34;;;;;;;14.07;8.65;;;1.60;92.90;;;;;;5071238;28;20028;-64
2021/12/15 01:36:01;;;;;;;15.65;9.50;;;1.60;93.00;;;;;;5074900;28;20357;-64
2021/12/15 01:38:30;;;;;;;16.25;10.00;;;1.60;93.10;;;;;;5074625;28;20025;-63
2021/12/15 01:40:57;;;;;;;16.17;9.57;;;1.60;93.00;;;;;;5074915;28;20024;-63
2021/12/15 01:49:20;;;;;;;16.00;9.38;;;1.60;93.10;;;;;;5074935;28;20158;-64
2021/12/15 01:51:47;;;;;;;13.10;8.40;;;1.60;93.00;;;;;;5074600;28;20409;-63
2021/12/15 01:54:15;;;;;;;15.93;9.30;;;1.60;93.00;;;;;;5074234;28;20024;-64
2021/12/15 01:56:41;;;;;;;13.82;8.50;;;1.60;93.00;;;;;;5074641;28;20032;-63
2021/12/15 01:59:09;;;;;;;13.65;8.55;;;1.60;93.00;;;;;;5074343;28;20024;-65
2021/12/15 02:01:35;;;;;;;15.50;8.77;;;1.60;93.00;;;;;;5074523;28;20708;-64
2021/12/15 02:04:01;;;;;;;12.88;7.97;;;1.60;92.90;;;;;;5073980;28;20020;-64
2021/12/15 02:06:28;;;;;;;12.15;7.70;;;1.60;92.90;;;;;;5074362;28;20029;-63
2021/12/15 02:08:54;;;;;;;13.05;8.30;;;1.60;92.90;;;;;;5074063;28;20028;-64
2021/12/15 02:11:20;;;;;;;14.13;8.65;;;1.60;93.00;;;;;;5072279;28;20032;-63
2021/12/15 02:13:46;;;;;;;13.05;7.63;;;1.60;92.90;;;;;;5056841;28;20464;-64
2021/12/15 02:16:12;;;;;;;12.45;7.50;;;1.60;92.90;;;;;;5053964;28;20055;-64
2021/12/15 02:18:42;;;;;;;13.13;7.85;;;1.60;93.00;;;;;;5053922;28;20100;-65
2021/12/15 02:21:15;;;;;;;13.00;7.95;;;1.60;93.00;;;;;;5054070;28;20021;-64
2021/12/15 02:23:47;;;;;;;11.65;7.15;;;1.60;93.00;;;;;;5052851;28;20041;-64
2021/12/15 02:26:17;;;;;;;12.88;7.78;;;1.60;93.00;;;;;;5053174;28;20047;-64
2021/12/15 02:28:47;;;;;;;11.52;7.38;;;1.70;93.10;;;;;;5053960;28;20096;-64
2021/12/15 02:31:20;;;;;;;12.63;7.20;;;1.70;93.10;;;;;;5053969;28;20055;-64
2021/12/15 02:34:03;;;;;;;11.70;6.97;;;1.70;92.90;;;;;;5072226;28;20024;-65
2021/12/15 02:39:14;;;;;;;12.00;7.18;;;1.60;93.10;;;;;;5073508;28;20082;-64
2021/12/15 02:41:41;;;;;;;13.60;7.93;;;1.60;93.10;;;;;;5073621;28;20021;-63
2021/12/15 02:44:12;;;;;;;13.05;7.53;;;1.60;93.10;;;;;;5073649;28;20476;-64
2021/12/15 02:46:39;;;;;;;12.48;6.97;;;1.60;93.10;;;;;;5073480;28;20459;-64
2021/12/15 02:49:07;;;;;;;12.57;7.93;;;1.60;93.10;;;;;;5073373;28;20033;-63
2021/12/15 02:51:35;;;;;;;12.02;7.50;;;1.60;93.10;;;;;;5073279;28;20052;-64
2021/12/15 02:54:01;;;;;;;11.60;7.15;;;1.60;93.10;;;;;;5073285;28;20071;-64
2021/12/15 02:56:27;;;;;;;12.25;7.78;;;1.60;93.20;;;;;;5073315;28;20032;-63
2021/12/15 02:58:58;;;;;;;11.27;7.43;;;1.60;93.20;;;;;;5073245;28;20099;-64
2021/12/15 03:01:51;;;;;;;11.20;7.10;;;1.60;93.30;;;;;;5073038;28;20111;-64
2021/12/15 03:04:31;;;;;;;11.95;7.15;;;1.60;93.30;;;;;;5073167;28;20024;-63
2021/12/15 03:07:08;;;;;;;13.73;8.07;;;1.60;93.40;;;;;;5073165;28;20659;-63
2021/12/15 03:17:32;;;;;;;12.38;7.07;;;1.60;93.50;;;;;;5073293;28;20144;-64
2021/12/15 03:19:58;;;;;;;12.52;7.28;;;1.60;93.50;;;;;;5071880;28;20155;-64
2021/12/15 03:22:24;;;;;;;13.15;7.72;;;1.70;93.60;;;;;;5073024;28;20016;-64
2021/12/15 03:24:50;;;;;;;14.05;8.25;;;1.70;93.50;;;;;;5072665;28;20407;-64
2021/12/15 03:27:17;;;;;;;14.43;8.43;;;1.70;93.50;;;;;;5072667;28;20027;-65
2021/12/15 03:37:46;;;;;;;13.25;7.60;;;1.70;93.60;;;;;;5051966;28;20049;-64
2021/12/15 03:40:19;;;;;;;13.88;8.70;;;1.60;93.60;;;;;;5050886;28;20156;-64
2021/12/15 03:42:50;;;;;;;;;;;1.70;93.70;;;;;;5052823;28;20025;-64
2021/12/15 03:45:30;;;;;;;12.13;7.53;;;1.60;93.60;;;;;;5052473;28;19900;-65
2021/12/15 03:47:58;;;;;;;12.40;8.05;;;1.70;93.70;;;;;;5052530;28;20021;-64
2021/12/15 03:50:27;;;;;;;12.27;7.72;;;1.70;93.70;;;;;;5052776;28;20114;-65
2021/12/15 03:52:54;;;;;;;13.73;9.05;;;1.70;93.60;;;;;;5052267;28;20195;-64
2021/12/15 03:55:24;;;;;;;13.32;8.10;;;1.70;93.60;;;;;;5052462;28;20025;-64
2021/12/15 03:57:50;;;;;;;12.95;7.93;;;1.70;93.60;;;;;;5052322;28;20029;-64
2021/12/15 04:00:18;;;;;;;12.80;7.57;;;1.70;93.60;;;;;;5060682;28;20055;-64
2021/12/15 04:02:45;;;;;;;11.85;7.30;;;1.70;93.70;;;;;;5072007;28;20025;-65
2021/12/15 04:05:12;;;;;;;11.82;7.03;;;1.70;93.80;;;;;;5072045;28;20074;-64
2021/12/15 04:07:39;;;;;;;12.00;7.28;;;1.70;93.70;;;;;;5071904;28;20421;-64
2021/12/15 04:10:07;;;;;;;10.73;6.95;;;1.60;93.70;;;;;;5072140;28;20089;-63
2021/12/15 04:12:33;;;;;;;12.80;7.57;;;1.70;93.80;;;;;;5071681;28;20040;-64
2021/12/15 04:17:44;;;;;;;11.57;7.47;;;1.70;93.80;;;;;;5071905;28;20026;-64
2021/12/15 04:20:15;;;;;;;12.32;7.38;;;1.70;93.80;;;;;;5071622;28;20036;-64
2021/12/15 04:22:41;;;;;;;11.27;7.25;;;1.70;93.90;;;;;;5070231;28;20020;-64
2021/12/15 04:25:22;;;;;;;11.27;7.50;;;1.70;93.90;;;;;;5071819;28;20017;-65
2021/12/15 04:28:16;;;;;;;10.60;6.72;;;1.80;93.80;;;;;;5071609;28;20023;-63
2021/12/15 04:30:47;;;;;;;11.27;7.15;;;1.80;93.80;;;;;;5071826;28;20786;-64
2021/12/15 04:33:28;;;;;;;10.70;6.78;;;1.80;93.70;;;;;;5057548;28;20407;-64
2021/12/15 04:35:56;;;;;;;10.73;6.65;;;1.80;93.60;;;;;;5051504;28;20021;-64
2021/12/15 04:38:25;;;;;;;11.65;7.28;;;1.80;93.70;;;;;;5051456;28;20028;-64
2021/12/15 04:40:51;;;;;;;12.85;7.15;;;1.80;93.70;;;;;;5051415;28;20025;-64
2021/12/15 04:43:17;;;;;;;11.98;7.32;;;1.80;93.70;;;;;;5051534;28;20025;-63
2021/12/15 04:45:44;;;;;;;12.10;7.43;;;1.80;93.60;;;;;;5051670;28;20048;-64
2021/12/15 04:48:11;;;;;;;11.68;7.38;;;1.70;93.60;;;;;;5051357;28;20048;-65
2021/12/15 04:50:38;;;;;;;12.05;7.20;;;1.70;93.70;;;;;;5051015;28;20029;-64
2021/12/15 04:53:05;;;;;;;11.07;6.82;;;1.80;93.70;;;;;;5051386;28;20086;-64
2021/12/15 04:55:33;;;;;;;11.27;6.78;;;1.80;93.70;;;;;;5051378;28;20052;-64
2021/12/15 04:58:01;;;;;;;13.07;7.40;;;1.80;93.70;;;;;;5051439;28;20036;-64
2021/12/15 05:00:29;;;;;;;12.43;7.85;;;1.80;93.70;;;;;;5051571;28;20159;-65
2021/12/15 05:02:57;;;;;;;12.40;7.05;;;1.80;93.80;;;;;;5049738;28;20032;-63
2021/12/15 05:05:24;;;;;;;11.95;7.53;;;1.80;93.80;;;;;;5051106;28;20040;-65
2021/12/15 05:07:51;;;;;;;11.55;7.38;;;1.80;93.90;;;;;;5051070;28;20108;-63
2021/12/15 05:10:18;;;;;;;10.90;6.82;;;1.80;93.80;;;;;;5051173;28;20032;-64
2021/12/15 05:12:44;;;;;;;11.98;6.95;;;1.80;93.70;;;;;;5050791;28;20127;-63
2021/12/15 05:15:10;;;;;;;12.27;7.10;;;1.80;93.70;;;;;;5051041;28;20067;-65
2021/12/15 05:17:38;;;;;;;11.40;6.35;;;1.80;93.70;;;;;;5051000;28;20025;-64
2021/12/15 05:20:06;;;;;;;12.88;7.53;;;1.80;93.70;;;;;;5051059;28;20037;-65
2021/12/15 05:22:33;;;;;;;11.50;6.78;;;1.80;93.70;;;;;;5049773;28;20032;-65
2021/12/15 05:24:59;;;;;;;11.43;6.90;;;1.80;93.70;;;;;;5050806;28;20180;-66
2021/12/15 05:27:25;;;;;;;10.55;6.50;;;1.80;93.80;;;;;;5051113;28;20028;-64
2021/12/15 05:29:52;;;;;;;10.63;6.47;;;1.70;94.10;;;;;;5051117;28;20044;-65
2021/12/15 05:32:21;;;;;;;10.88;6.47;;;1.80;93.90;;;;;;5057199;28;20025;-65
2021/12/15 05:34:49;;;;;;;10.60;6.78;;;1.80;93.80;;;;;;5070801;28;20024;-65
2021/12/15 05:37:16;;;;;;;9.98;6.50;;;1.80;93.80;;;;;;5070613;28;20388;-63
2021/12/15 05:39:44;;;;;;;10.25;6.13;;;1.80;93.80;;;;;;5070760;28;20032;-64
2021/12/15 05:42:10;;;;;;;9.90;6.15;;;1.80;93.90;;;;;;5070775;28;20021;-64
2021/12/15 05:44:36;;;;;;;9.38;6.03;;;1.80;93.90;;;;;;5070787;28;20027;-64
2021/12/15 05:47:04;;;;;;;10.63;6.85;;;1.80;93.90;;;;;;5070690;28;20052;-64
2021/12/15 05:49:30;;;;;;;10.43;6.45;;;1.90;93.90;;;;;;5069464;28;20056;-65
2021/12/15 05:51:56;;;;;;;10.13;6.22;;;1.90;93.90;;;;;;5069328;28;20106;-64
2021/12/15 05:54:22;;;;;;;10.13;6.72;;;1.90;93.90;;;;;;5070627;28;20036;-65
2021/12/15 05:56:48;;;;;;;11.05;6.93;;;1.90;93.90;;;;;;5070840;28;20052;-64
2021/12/15 05:59:15;;;;;;;11.07;6.70;;;1.90;93.90;;;;;;5071045;28;20024;-65
2021/12/15 06:01:41;;;;;;;9.55;5.95;;;1.90;93.90;;;;;;5071985;28;20839;-64
2021/12/15 06:04:07;;;;;;;11.98;6.95;;;1.90;94.00;;;;;;5074096;28;20107;-66
2021/12/15 06:06:33;;;;;;;9.93;6.43;;;1.90;94.10;;;;;;5072763;28;20028;-63
2021/12/15 06:09:00;;;;;;;10.27;6.45;;;1.90;93.90;;;;;;5074238;28;20024;-65
2021/12/15 06:11:26;;;;;;;10.63;6.85;;;1.90;93.90;;;;;;5074076;28;20038;-65
2021/12/15 06:13:53;;;;;;;11.13;6.63;;;2.00;94.00;;;;;;5073709;28;20102;-65
2021/12/15 06:16:20;;;;;;;11.65;7.80;;;2.00;94.00;;;;;;5073689;28;20356;-65
2021/12/15 06:18:48;;;;;;;12.60;8.13;;;2.00;93.90;;;;;;5073821;28;20103;-65
2021/12/15 06:21:15;;;;;;;14.20;8.40;;;2.00;93.70;;;;;;5072441;28;20035;-65
2021/12/15 06:23:42;;;;;;;15.73;10.05;;;2.00;93.60;;;;;;5073819;28;20032;-65
2021/12/15 06:26:08;;;;;;;15.52;10.02;;;2.00;93.50;;;;;;5073925;28;20085;-64
2021/12/15 06:28:36;;;;;;;16.60;10.32;;;1.90;93.50;;;;;;5073787;28;20155;-65
2021/12/15 06:31:03;;;;;;;14.80;9.65;;;1.90;93.60;;;;;;5072444;28;20033;-66
2021/12/15 06:33:29;;;;;;;16.17;10.60;;;1.90;93.60;;;;;;5057493;28;20071;-65
2021/12/15 06:35:59;;;;;;;16.98;10.55;;;1.90;93.50;;;;;;5053585;28;20028;-64
2021/12/15 06:38:30;;;;;;;16.23;9.95;;;1.90;93.60;;;;;;5053325;28;20469;-64
2021/12/15 06:40:57;;;;;;;17.45;10.50;;;1.90;93.70;;;;;;5053335;28;20126;-64
2021/12/15 06:43:23;;;;;;;15.02;9.90;;;1.90;93.80;;;;;;5053377;28;20096;-65
2021/12/15 06:46:06;;;;;;;13.80;8.23;;;1.90;93.80;;;;;;5053543;28;20020;-64
2021/12/15 06:59:31;;;;;;;12.35;8.27;;;2.00;93.90;;;;;;5053307;28;20031;-64
2021/12/15 07:01:57;;;;;;;11.57;7.50;;;2.00;94.00;;;;;;5062163;28;20021;-65
2021/12/15 07:04:23;;;;;;;12.48;7.63;;;2.00;93.90;;;;;;5059056;28;20400;-66
2021/12/15 07:06:51;;;;;;;11.93;7.50;;;2.00;93.70;;;;;;5060857;28;20029;-66
2021/12/15 07:09:17;;;;;;;12.20;7.40;;;2.00;93.70;;;;;;5065456;28;20387;-65
2021/12/15 07:11:43;;;;;;;15.98;8.15;;;2.00;93.80;;;;;;5067221;28;20120;-64
2021/12/15 07:14:09;;;;;;;12.10;7.57;;;2.00;93.80;;;;;;5064603;28;20543;-65
2021/12/15 07:16:39;;;;;;;11.30;7.35;;;2.00;93.80;;;;;;5065233;28;20043;-65
2021/12/15 07:19:09;;;;;;;11.25;7.35;;;2.00;93.80;;;;;;5057234;28;20021;-65
2021/12/15 07:21:39;;;;;;;12.02;7.28;;;2.00;93.80;;;;;;5063395;28;20028;-65
2021/12/15 07:24:06;;;;;;;12.90;7.55;;;2.10;93.90;;;;;;5062644;28;20028;-64
2021/12/15 07:26:33;;;;;;;10.68;6.68;;;2.10;93.80;;;;;;5070313;28;20045;-65
2021/12/15 07:28:59;;;;;;;10.48;6.10;;;2.00;93.80;;;;;;5053915;28;20017;-64
2021/12/15 07:31:25;;;;;;;11.25;6.10;;;2.10;93.90;;;;;;5056249;28;20032;-64
2021/12/15 07:33:51;;;;;;;9.38;5.70;;;2.10;94.00;;;;;;5064009;28;20043;-65
2021/12/15 07:36:17;;;;;;;10.27;6.50;;;2.10;94.00;;;;;;5052457;28;20105;-63
2021/12/15 07:38:44;;;;;;;10.95;6.55;;;2.10;93.80;;;;;;5057836;28;20024;-65
2021/12/15 07:41:22;;;;;;;11.23;6.85;;;2.20;93.70;;;;;;5059381;28;20064;-65
2021/12/15 07:43:48;;;;;;;10.82;6.65;;;2.20;93.60;;;;;;5065736;28;20016;-65
2021/12/15 07:46:14;;;;;;;11.80;7.03;;;2.20;93.70;;;;;;5070325;28;20032;-65
2021/12/15 07:48:40;;;;;;;13.27;7.95;;;2.20;93.60;;;;;;5072115;28;20031;-66
2021/12/15 07:51:08;;;;;;;11.45;7.38;;;2.20;93.50;;;;;;5071783;28;20082;-65
2021/12/15 07:53:35;;;;;;;13.68;7.88;;;2.20;93.50;;;;;;5069324;28;20031;-65
2021/12/15 07:56:01;;;;;;;11.88;7.82;;;2.30;93.40;;;;;;5071405;28;20087;-66
2021/12/15 07:58:28;;;;;;;10.80;6.85;;;2.20;93.40;;;;;;5070770;28;20495;-64
2021/12/15 08:00:56;;;;;;;11.93;7.38;;;2.20;93.30;;;;;;5070457;28;20112;-65
2021/12/15 08:03:22;;;;;;;12.43;7.47;;;2.30;93.40;;;;;;5071085;28;20024;-64
2021/12/15 08:05:50;;;;;;;12.82;7.53;;;2.30;93.30;;;;;;5070471;28;20031;-66
2021/12/15 08:08:17;;;;;;;12.82;7.50;;;2.30;93.10;;;;;;5071086;28;20028;-64
2021/12/15 08:10:44;;;;;;;12.63;7.43;;;2.30;93.20;;;;;;5071742;28;20031;-65
2021/12/15 08:13:11;;;;;;;13.95;7.55;;;2.30;93.20;;;;;;5070279;28;20049;-65
2021/12/15 08:15:38;;;;;;;12.85;7.78;;;2.40;93.20;;;;;;5071636;28;20379;-65
2021/12/15 08:18:05;;;;;;;13.20;7.55;;;2.40;93.10;;;;;;5071420;28;20024;-65
2021/12/15 08:20:32;;;;;;;12.07;7.60;;;2.40;93.10;;;;;;5071279;28;20082;-65
2021/12/15 08:22:58;;;;;;;14.13;7.88;;;2.40;93.20;;;;;;5071435;28;20074;-65
2021/12/15 08:25:24;;;;;;;13.93;8.00;;;2.40;93.20;;;;;;5070200;28;20434;-64
2021/12/15 08:27:51;;;;;;;13.35;7.93;;;2.50;93.10;;;;;;5071289;28;20055;-66
2021/12/15 08:30:21;;;;;;;13.52;8.15;;;2.40;92.90;;;;;;5070590;28;20483;-64
2021/12/15 08:32:50;;;;;;;14.25;8.40;;;2.50;93.00;;;;;;5053027;28;20037;-65
2021/12/15 08:35:18;;;;;;;14.48;8.48;;;2.50;92.90;;;;;;5061633;28;20085;-65
2021/12/15 08:37:44;;;;;;;17.00;9.93;;;2.50;92.90;;;;;;5070916;28;20036;-64
2021/12/15 08:40:11;;;;;;;16.15;9.05;;;2.50;93.20;;;;;;5070227;28;20029;-65
2021/12/15 08:42:37;;;;;;;15.55;9.63;;;2.40;92.90;;;;;;5070949;28;20372;-65
2021/12/15 08:45:04;;;;;;;16.25;9.35;;;2.40;92.90;;;;;;5070481;28;20020;-65
2021/12/15 08:47:30;;;;;;;15.02;9.10;;;2.40;92.90;;;;;;5071158;28;20016;-66
2021/12/15 08:49:56;;;;;;;15.68;9.15;;;2.40;92.90;;;;;;5070094;28;20031;-65
2021/12/15 08:52:22;;;;;;;16.50;9.65;;;2.40;93.00;;;;;;5053601;28;20353;-66
2021/12/15 08:54:48;;;;;;;17.50;9.80;;;2.40;93.10;;;;;;5050956;28;20033;-66
2021/12/15 08:57:14;;;;;;;20.25;11.45;;;2.50;93.10;;;;;;5069163;28;20110;-64
2021/12/15 08:59:39;;;;;;;20.00;11.20;;;2.50;92.90;;;;;;5071251;28;20028;-64
2021/12/15 09:02:05;;;;;;;18.67;11.27;;;2.50;92.90;;;;;;5057262;28;20028;-64
2021/12/15 09:04:31;;;;;;;18.60;10.50;;;2.50;92.90;;;;;;5051142;28;20532;-67
2021/12/15 09:06:57;;;;;;;16.92;10.27;;;2.50;93.00;;;;;;5052783;28;20021;-65
2021/12/15 09:09:25;;;;;;;18.50;11.07;;;2.50;93.00;;;;;;5051098;28;20029;-66
2021/12/15 09:11:52;;;;;;;17.85;10.70;;;2.50;92.80;;;;;;5052287;28;20017;-65
2021/12/15 09:14:19;;;;;;;21.10;12.75;;;2.50;92.80;;;;;;5053514;28;20063;-64
2021/12/15 09:16:48;;;;;;;18.52;11.65;;;2.50;92.70;;;;;;5070474;28;20467;-65
2021/12/15 09:19:14;;;;;;;19.90;12.18;;;2.50;92.70;;;;;;5070670;28;20059;-66
2021/12/15 09:21:42;;;;;;;21.60;12.63;;;2.50;92.60;;;;;;5070883;28;20040;-65
2021/12/15 09:24:13;;;;;;;20.23;11.90;;;2.60;92.80;;;;;;5055416;28;20025;-66
2021/12/15 09:26:40;;;;;;;20.13;12.13;;;2.60;92.30;;;;;;5052307;28;20029;-64
2021/12/15 09:29:06;;;;;;;21.50;12.35;;;2.60;92.10;;;;;;5051059;28;20511;-65
2021/12/15 09:31:33;;;;;;;21.05;12.32;;;2.60;92.00;;;;;;5054376;28;20047;-65
2021/12/15 09:33:59;;;;;;;22.13;12.27;;;2.60;92.10;;;;;;5068247;28;20032;-65
2021/12/15 09:36:26;;;;;;;21.20;12.68;;;2.60;92.10;;;;;;5072593;28;20029;-65
2021/12/15 09:39:00;;;;;;;19.73;11.82;;;2.60;92.00;;;;;;5072974;28;20437;-66
2021/12/15 09:41:27;;;;;;;21.52;12.55;;;2.60;91.80;;;;;;5073309;28;20472;-64
2021/12/15 09:43:56;;;;;;;27.13;14.98;;;2.60;91.80;;;;;;5073586;28;20025;-65
2021/12/15 09:46:38;;;;;;;31.13;17.45;;;2.60;91.60;;;;;;5068224;28;20024;-66
2021/12/15 10:03:12;;;;;;;37.90;18.63;;;2.40;91.80;;;;;;5041626;28;20043;-65
2021/12/15 10:05:46;;;;;;;36.53;18.70;;;2.40;91.80;;;;;;5063803;28;20049;-65
2021/12/15 10:19:47;;;;;;;36.47;18.88;;;2.40;92.30;;;;;;5053950;28;20036;-65
2021/12/15 10:22:44;;;;;;;41.13;20.58;;;2.40;92.20;;;;;;5053418;28;20021;-65
2021/12/15 10:25:36;;;;;;;35.83;19.13;;;2.40;91.80;;;;;;5067082;28;20036;-65
2021/12/15 10:28:08;;;;;;;37.25;18.77;;;2.30;91.50;;;;;;5072096;28;20090;-65
2021/12/15 10:30:42;;;;;;;34.90;17.83;;;2.40;91.80;;;;;;5070297;28;20027;-64
2021/12/15 10:33:10;;;;;;;35.15;18.50;;;2.40;91.90;;;;;;5060280;28;20035;-65
2021/12/15 10:35:43;;;;;;;36.97;19.02;;;2.30;91.90;;;;;;5053552;28;20461;-64
2021/12/15 10:38:26;;;;;;;32.75;17.88;;;2.30;91.70;;;;;;5054823;28;20024;-65
2021/12/15 10:40:58;;;;;;;33.33;17.48;;;2.30;91.60;;;;;;5067399;28;20032;-66
2021/12/15 10:43:28;;;;;;;34.83;18.13;;;2.30;91.80;;;;;;5065142;28;20473;-65
2021/12/15 10:46:00;;;;;;;33.30;17.70;;;2.30;91.80;;;;;;5078601;28;20033;-66
2021/12/15 10:48:38;;;;;;;34.60;16.50;;;2.30;92.10;;;;;;5054068;28;20060;-66
2021/12/15 10:51:21;;;;;;;33.05;17.73;;;2.30;91.90;;;;;;5063692;28;20033;-65
2021/12/15 10:53:48;;;;;;;36.03;17.48;;;2.30;91.90;;;;;;5055685;28;20040;-66
2021/12/15 10:56:18;;;;;;;35.38;16.90;;;2.30;91.90;;;;;;5064658;28;20024;-64
2021/12/15 10:58:50;;;;;;;32.85;17.70;;;2.30;92.20;;;;;;5072976;28;20035;-66
2021/12/15 11:01:52;;;;;;;37.75;18.05;;;2.30;92.00;;;;;;5072664;28;20032;-65
2021/12/15 11:04:24;;;;;;;37.73;19.07;;;2.30;91.90;;;;;;5069828;28;20357;-64
2021/12/15 11:07:10;;;;;;;35.20;18.80;;;2.30;92.00;;;;;;5068830;28;20688;-65
2021/12/15 11:09:47;;;;;;;34.17;17.67;;;2.30;91.90;;;;;;5052870;28;20021;-64
2021/12/15 11:12:38;;;;;;;33.95;17.67;;;2.30;91.90;;;;;;5070952;28;20024;-65
2021/12/15 11:15:15;;;;;;;33.78;17.35;;;2.40;92.10;;;;;;5054291;28;20040;-64
2021/12/15 11:17:50;;;;;;;33.35;17.33;;;2.40;92.00;;;;;;5072498;28;20150;-65
2021/12/15 11:20:22;;;;;;;34.60;18.50;;;2.40;92.20;;;;;;5072485;28;20560;-66
2021/12/15 11:22:49;;;;;;;34.10;18.02;;;2.40;91.80;;;;;;5072575;28;20108;-66
2021/12/15 11:25:38;;;;;;;36.45;18.90;;;2.40;91.80;;;;;;5071034;28;20024;-65
2021/12/15 11:28:14;;;;;;;34.65;18.00;;;2.40;91.70;;;;;;5069971;28;20496;-64
2021/12/15 11:30:39;;;;;;;34.88;17.90;;;2.40;91.60;;;;;;5052820;28;20025;-64
2021/12/15 11:33:18;;;;;;;36.97;18.58;;;2.30;91.60;;;;;;5063569;28;20028;-66
2021/12/15 11:36:07;;;;;;;33.25;17.70;;;2.40;91.50;;;;;;5071737;28;20064;-65
2021/12/15 11:38:36;;;;;;;34.08;18.17;;;2.30;91.50;;;;;;5067270;28;20025;-65
2021/12/15 11:41:12;;;;;;;35.72;18.95;;;2.30;91.60;;;;;;5061655;28;20028;-64
2021/12/15 11:43:52;;;;;;;34.42;18.38;;;2.30;91.60;;;;;;5063178;28;20130;-66
2021/12/15 11:46:36;;;;;;;33.92;18.17;;;2.30;91.50;;;;;;5068083;28;20020;-64
2021/12/15 11:49:06;;;;;;;38.60;20.05;;;2.30;91.60;;;;;;5070499;28;20025;-65
2021/12/15 11:51:43;;;;;;;48.63;23.23;;;2.30;91.60;;;;;;5064906;28;20021;-65
2021/12/15 11:54:36;;;;;;;47.90;22.80;;;2.20;91.70;;;;;;5066904;28;20024;-65
2021/12/15 11:57:08;;;;;;;41.13;20.88;;;2.20;91.60;;;;;;5069463;28;20123;-65
2021/12/15 11:59:40;;;;;;;45.03;21.58;;;2.10;91.70;;;;;;5068713;28;20039;-65
2021/12/15 12:02:23;;;;;;;48.25;22.55;;;2.10;91.80;;;;;;5070997;28;20021;-64
2021/12/15 12:04:54;;;;;;;40.75;19.83;;;2.10;91.70;;;;;;5070294;28;20028;-65
2021/12/15 12:07:37;;;;;;;47.38;22.67;;;2.10;91.90;;;;;;5071827;28;20471;-65
2021/12/15 12:10:03;;;;;;;;;;;2.00;91.90;;;;;;5072039;28;20028;-65
2021/12/15 12:12:36;;;;;;;44.22;21.20;;;2.00;92.10;;;;;;5069663;28;19912;-65
2021/12/15 12:15:05;;;;;;;49.20;22.35;;;1.90;92.10;;;;;;5061623;28;20140;-64
2021/12/15 12:17:38;;;;;;;41.55;20.25;;;2.00;92.20;;;;;;5052455;28;20419;-65
2021/12/15 12:20:11;;;;;;;44.55;20.85;;;1.90;92.30;;;;;;5051100;28;20033;-66
2021/12/15 12:22:39;;;;;;;40.60;19.85;;;1.90;92.20;;;;;;5062076;28;20028;-65
2021/12/15 12:25:11;;;;;;;38.08;18.92;;;1.90;92.30;;;;;;5056313;28;20488;-66
2021/12/15 12:27:38;;;;;;;37.92;19.10;;;2.00;92.40;;;;;;5051540;28;20036;-65
2021/12/15 12:30:11;;;;;;;39.78;19.73;;;2.00;92.40;;;;;;5058656;28;20081;-65
2021/12/15 12:32:37;;;;;;;40.35;19.20;;;2.00;92.40;;;;;;5062453;28;20021;-65
2021/12/15 12:35:06;;;;;;;39.20;18.90;;;2.10;92.40;;;;;;5053950;28;20182;-64
2021/12/15 12:37:32;;;;;;;38.15;18.70;;;2.10;92.30;;;;;;5069195;28;20102;-66
2021/12/15 12:40:04;;;;;;;35.35;18.75;;;2.20;92.30;;;;;;5066514;28;20033;-65
2021/12/15 12:42:37;;;;;;;36.03;17.55;;;2.20;92.10;;;;;;5069746;28;20032;-65
2021/12/15 12:45:11;;;;;;;37.17;18.48;;;2.20;92.00;;;;;;5071059;28;20021;-66
2021/12/15 12:47:44;;;;;;;38.13;18.63;;;2.20;91.90;;;;;;5051306;28;20094;-65
2021/12/15 12:50:52;;;;;;;35.25;18.25;;;2.20;91.90;;;;;;5051646;28;20086;-64
2021/12/15 12:59:41;;;;;;;34.33;17.73;;;2.20;91.80;;;;;;5068953;28;20487;-65
2021/12/15 13:02:31;;;;;;;31.30;17.93;;;2.20;91.60;;;;;;5065659;28;20032;-66
2021/12/15 13:04:57;;;;;;;32.53;17.70;;;2.20;91.50;;;;;;5060896;28;20026;-65
2021/12/15 13:07:50;;;;;;;33.45;17.55;;;2.20;91.50;;;;;;5062268;28;20036;-64
2021/12/15 13:10:18;;;;;;;30.93;16.77;;;2.30;91.60;;;;;;5063339;28;20033;-66
2021/12/15 13:12:47;;;;;;;33.67;17.50;;;2.30;91.60;;;;;;5059917;28;20045;-65
2021/12/15 13:15:20;;;;;;;31.55;17.05;;;2.30;91.50;;;;;;5073087;28;20017;-64
2021/12/15 13:18:03;;;;;;;33.78;17.65;;;2.30;91.50;;;;;;5071834;28;20028;-65
2021/12/15 13:20:30;;;;;;;;;;;2.30;91.30;;;;;;5061693;28;20037;-64
2021/12/15 13:23:07;;;;;;;33.42;18.08;;;2.20;91.30;;;;;;5072985;28;19905;-66
2021/12/15 13:31:11;;;;;;;31.50;16.55;;;2.20;91.40;;;;;;5054823;28;20384;-66
2021/12/15 13:33:38;;;;;;;31.48;15.93;;;2.20;91.70;;;;;;5071404;28;20056;-66
2021/12/15 13:36:23;;;;;;;30.88;15.63;;;2.20;91.40;;;;;;5074555;28;20016;-65
2021/12/15 13:38:54;;;;;;;26.73;14.80;;;2.20;91.30;;;;;;5073263;28;20444;-65
2021/12/15 13:41:38;;;;;;;24.88;13.80;;;2.30;91.30;;;;;;5074706;28;20031;-68
2021/12/15 13:44:43;;;;;;;26.17;14.23;;;2.30;91.20;;;;;;5074465;28;20048;-65
2021/12/15 13:47:11;;;;;;;30.38;15.25;;;2.30;91.20;;;;;;5074911;28;20083;-67
2021/12/15 13:49:43;;;;;;;28.08;16.00;;;2.30;91.20;;;;;;5074631;28;20099;-66
2021/12/15 13:52:29;;;;;;;28.33;16.05;;;2.30;91.10;;;;;;5074382;28;20032;-66
2021/12/15 13:55:15;;;;;;;26.63;14.38;;;2.30;91.10;;;;;;5071991;28;20357;-65
2021/12/15 13:58:20;;;;;;;31.17;15.95;;;2.30;91.20;;;;;;5072661;28;20032;-66
2021/12/15 14:00:53;;;;;;;29.67;16.48;;;2.30;91.00;;;;;;5062357;28;20036;-66
2021/12/15 14:03:30;;;;;;;29.15;15.75;;;2.30;90.90;;;;;;5074294;28;20107;-65
2021/12/15 14:06:05;;;;;;;33.67;16.95;;;2.30;90.90;;;;;;5074255;28;20028;-66
2021/12/15 14:08:47;;;;;;;28.85;16.65;;;2.30;90.80;;;;;;5073919;28;20085;-67
2021/12/15 14:11:19;;;;;;;27.35;15.32;;;2.20;90.70;;;;;;5074314;28;20016;-65
2021/12/15 14:13:58;;;;;;;26.25;14.07;;;2.20;90.70;;;;;;5071685;28;20067;-66
2021/12/15 14:16:43;;;;;;;29.13;14.75;;;2.20;90.70;;;;;;5073727;28;20028;-65
2021/12/15 14:19:14;;;;;;;27.73;14.80;;;2.20;90.80;;;;;;5074130;28;20085;-67
2021/12/15 14:21:40;;;;;;;27.15;14.13;;;2.20;90.80;;;;;;5059904;28;20076;-67
2021/12/15 14:24:08;;;;;;;27.17;15.02;;;2.20;90.90;;;;;;5054412;28;20017;-67